Ana Sayfa
METAR-TAF:

METAR-TAF

Havaalanları :

Ordu-Giresun Havalimanı

Ordu, Türkiye

Enlem: 40-58-00N, Boylam: 38-04-48E, yükseklik: 5 m

Güncel hava durumu gözlemi

Rapor saat 20:50 UTC de 51 dakika önce yapıldı.
Rüzgar güney/güneybatıdan 4 kt
Sıcaklık 21°C
Nem 88%
Basınç 1013 hPa
Görüş mesafesi 10 km veya daha fazla
1200 ft yükseklikte parçalı bulutlu
3500 ft yükseklikte parçalı bulutlu

METAR: LTCB 262050Z 21004KT 9999 SCT012 SCT035 21/19 Q1013

Saat: 00:41 (21:41 UTC)


TAF: eksik

4.000'den fazla havaalanı için hava durumu gözlemleri ve tahminleri (METAR ve TAF raporları).

Kullanılabilir istasyonlar harita üzerinde sarı ve kırmızı noktalarla gösterilir.

İstasyonun adını görmek için fareyi noktanın üzerinde gezdirin.

Sonrasında hava gözlem ve tahminlerini görmek için tıklayın.

Haritayı değiştirmek için: yaklaştırmak için siyah artı işaretli yeşil düğmeye ve uzaklaştırmak için de eksi işaretli düğmeye hızla tıklayın; bitişik haritalar için yeşil okları kullanın.


METAR-TAF: